Time;durP1;ratioP1;P1;durP2;ratioP2;P2;SDS_P1;SDS_P2;PMS_P1;PMS_P2;Temp;Humidity;BMP_temperature;BMP_pressure;BME280_temperature;BME280_humidity;BME280_pressure;Samples;Min_cycle;Max_cycle;Signal;HPM_P1;HPM_P2
2022/06/23 00:01:57;;;;;;;11.38;4.53;;;17.60;99.90;;;;;;5050570;28;20021;-39
2022/06/23 00:04:27;;;;;;;8.50;3.67;;;17.60;99.90;;;;;;5050101;28;20499;-35
2022/06/23 00:07:00;;;;;;;7.95;3.78;;;17.60;99.90;;;;;;5043856;28;20477;-37
2022/06/23 00:09:32;;;;;;;9.65;4.68;;;17.60;99.90;;;;;;5050989;28;20401;-37
2022/06/23 00:11:58;;;;;;;9.85;3.75;;;17.60;99.90;;;;;;5047527;28;20029;-48
2022/06/23 00:14:25;;;;;;;7.43;3.97;;;17.60;99.90;;;;;;5052084;28;20108;-39
2022/06/23 00:16:51;;;;;;;12.57;4.68;;;17.60;99.90;;;;;;5033442;28;20040;-33
2022/06/23 00:19:17;;;;;;;9.45;4.32;;;17.60;99.90;;;;;;5037225;28;20477;-38
2022/06/23 00:21:48;;;;;;;8.15;4.10;;;17.50;99.90;;;;;;5038272;28;20030;-39
2022/06/23 00:24:25;;;;;;;6.65;4.18;;;17.50;99.90;;;;;;5041489;28;20608;-46
2022/06/23 00:26:52;;;;;;;7.82;4.28;;;17.50;99.90;;;;;;5033384;28;20036;-42
2022/06/23 00:29:21;;;;;;;10.73;4.20;;;17.40;99.90;;;;;;5043716;28;20033;-31
2022/06/23 00:32:04;;;;;;;5.30;3.78;;;17.40;99.90;;;;;;5046680;28;20049;-39
2022/06/23 00:34:37;;;;;;;7.00;3.47;;;17.40;99.90;;;;;;5033039;28;20433;-32
2022/06/23 00:37:15;;;;;;;7.15;3.55;;;17.40;99.90;;;;;;5049235;28;20075;-33
2022/06/23 00:39:48;;;;;;;4.22;3.53;;;17.40;99.90;;;;;;5045887;28;20038;-29
2022/06/23 00:42:33;;;;;;;10.95;4.03;;;17.30;99.90;;;;;;5035969;28;20022;-32
2022/06/23 00:45:13;;;;;;;9.68;3.80;;;17.30;99.90;;;;;;5033078;28;20112;-30
2022/06/23 00:48:19;;;;;;;4.72;3.95;;;17.30;99.90;;;;;;5032906;28;20021;-30
2022/06/23 00:50:55;;;;;;;9.77;3.65;;;17.20;99.90;;;;;;5045964;28;20048;-34
2022/06/23 00:53:45;;;;;;;6.40;4.18;;;17.20;99.90;;;;;;5040709;28;20486;-31
2022/06/23 00:56:37;;;;;;;7.65;3.53;;;17.20;99.90;;;;;;5051987;28;20032;-35
2022/06/23 00:59:26;;;;;;;10.05;4.25;;;17.10;99.90;;;;;;5051774;28;20505;-28
2022/06/23 01:02:14;;;;;;;6.78;3.63;;;17.10;99.90;;;;;;5047290;28;20505;-32
2022/06/23 01:05:10;;;;;;;5.57;3.70;;;17.10;99.90;;;;;;5050924;28;20033;-32
2022/06/23 01:07:53;;;;;;;7.78;4.15;;;17.10;99.90;;;;;;5050268;28;20386;-30
2022/06/23 01:10:34;;;;;;;10.50;4.63;;;17.00;99.90;;;;;;5043676;28;20040;-30
2022/06/23 01:13:20;;;;;;;8.60;3.78;;;17.00;99.90;;;;;;5049710;28;20056;-29
2022/06/23 01:15:52;;;;;;;5.32;3.70;;;16.90;99.90;;;;;;5032817;28;20037;-34
2022/06/23 01:18:21;;;;;;;3.88;3.40;;;16.90;99.90;;;;;;5032891;28;20029;-37
2022/06/23 01:21:00;;;;;;;7.25;3.60;;;16.90;99.90;;;;;;5032702;28;20029;-34
2022/06/23 01:23:40;;;;;;;7.40;3.90;;;16.90;99.90;;;;;;5035367;28;20086;-33
2022/06/23 01:26:43;;;;;;;9.88;3.80;;;16.80;99.90;;;;;;5048804;28;20044;-38
2022/06/23 01:29:39;;;;;;;10.80;3.70;;;16.80;99.90;;;;;;5032206;28;20030;-31
2022/06/23 01:32:20;;;;;;;9.83;4.23;;;16.80;99.90;;;;;;5050377;28;20056;-32
2022/06/23 01:34:48;;;;;;;5.05;3.50;;;16.80;99.90;;;;;;5040942;28;20041;-36
2022/06/23 01:37:33;;;;;;;10.88;4.13;;;16.80;99.90;;;;;;5051232;28;20095;-31
2022/06/23 01:40:10;;;;;;;9.00;4.30;;;16.80;99.90;;;;;;5040096;28;20025;-31
2022/06/23 01:42:48;;;;;;;8.13;3.97;;;16.80;99.90;;;;;;5056216;28;20428;-33
2022/06/23 01:45:39;;;;;;;10.50;4.55;;;16.70;99.90;;;;;;5056098;28;20032;-29
2022/06/23 01:48:08;;;;;;;11.75;3.53;;;16.80;99.90;;;;;;5041813;28;20017;-33
2022/06/23 01:50:42;;;;;;;4.97;3.67;;;16.70;99.90;;;;;;5052259;28;20072;-28
2022/06/23 01:53:29;;;;;;;5.88;3.72;;;16.70;99.90;;;;;;5036212;28;20477;-38
2022/06/23 01:55:59;;;;;;;8.77;4.30;;;16.70;99.90;;;;;;5035989;28;20017;-38
2022/06/23 01:58:28;;;;;;;8.18;4.22;;;16.70;99.90;;;;;;5035835;28;20040;-37
2022/06/23 02:00:59;;;;;;;8.10;4.05;;;16.70;99.90;;;;;;5035476;28;20474;-38
2022/06/23 02:03:35;;;;;;;6.35;4.32;;;16.60;99.90;;;;;;5049318;28;20485;-38
2022/06/23 02:06:23;;;;;;;10.68;7.13;;;16.60;99.90;;;;;;5035791;28;20040;-38
2022/06/23 02:08:56;;;;;;;40.40;23.65;;;16.60;99.90;;;;;;5035580;28;20055;-30
2022/06/23 02:11:32;;;;;;;37.83;23.95;;;16.50;99.90;;;;;;5035329;28;20036;-38
2022/06/23 02:14:38;;;;;;;35.08;20.35;;;16.50;99.90;;;;;;5049787;28;20033;-38
2022/06/23 02:17:27;;;;;;;21.42;11.43;;;16.50;99.90;;;;;;5036770;28;20029;-38
2022/06/23 02:19:55;;;;;;;17.92;10.38;;;16.40;99.90;;;;;;5054714;28;20032;-39
2022/06/23 02:22:23;;;;;;;19.15;7.93;;;16.40;99.90;;;;;;5045963;28;20370;-39
2022/06/23 02:25:04;;;;;;;13.80;6.93;;;16.40;99.90;;;;;;5034694;28;20477;-38
2022/06/23 02:27:33;;;;;;;10.93;5.50;;;16.30;99.90;;;;;;5051218;28;20035;-38
2022/06/23 02:30:34;;;;;;;10.68;5.05;;;16.40;99.90;;;;;;5055239;28;20029;-38
2022/06/23 02:33:10;;;;;;;8.32;4.85;;;16.30;99.90;;;;;;5035415;28;20537;-38
2022/06/23 02:35:46;;;;;;;9.57;3.72;;;16.30;99.90;;;;;;5046731;28;20035;-38
2022/06/23 02:38:20;;;;;;;12.00;5.22;;;16.20;99.90;;;;;;5034242;28;20029;-38
2022/06/23 02:40:56;;;;;;;7.95;4.25;;;16.20;99.90;;;;;;5035175;28;20083;-38
2022/06/23 02:43:31;;;;;;;12.30;5.13;;;16.10;99.90;;;;;;5034869;28;20474;-38
2022/06/23 02:46:26;;;;;;;10.82;4.90;;;16.10;99.90;;;;;;5036952;28;20029;-48
2022/06/23 02:49:10;;;;;;;11.00;4.35;;;16.10;99.90;;;;;;5036592;28;20108;-44
2022/06/23 02:51:44;;;;;;;6.50;4.63;;;16.10;99.90;;;;;;5043747;28;20029;-44
2022/06/23 02:54:29;;;;;;;9.77;4.75;;;16.00;99.90;;;;;;5054950;28;20029;-39
2022/06/23 02:57:03;;;;;;;9.75;4.85;;;15.90;99.90;;;;;;5040531;28;20378;-38
2022/06/23 03:00:03;;;;;;;8.07;4.57;;;15.90;99.90;;;;;;5037141;28;20382;-46
2022/06/23 03:02:57;;;;;;;6.32;4.40;;;15.80;99.90;;;;;;5046577;28;20035;-39
2022/06/23 03:05:30;;;;;;;6.43;4.63;;;15.80;99.90;;;;;;5041353;28;20498;-37
2022/06/23 03:08:03;;;;;;;19.15;4.47;;;15.80;99.90;;;;;;5032844;28;20033;-38
2022/06/23 03:10:56;;;;;;;9.43;4.55;;;15.80;99.90;;;;;;5034058;28;20025;-31
2022/06/23 03:13:31;;;;;;;5.90;4.15;;;15.80;99.90;;;;;;5033906;28;20485;-30
2022/06/23 03:16:22;;;;;;;11.13;5.45;;;15.80;99.90;;;;;;5052087;28;20017;-29
2022/06/23 03:18:51;;;;;;;6.28;4.97;;;15.70;99.90;;;;;;5054493;28;20025;-32
2022/06/23 03:21:26;;;;;;;10.25;5.47;;;15.70;99.90;;;;;;5037335;28;20036;-33
2022/06/23 03:24:22;;;;;;;9.15;4.80;;;15.70;99.90;;;;;;5036154;28;20026;-31
2022/06/23 03:26:54;;;;;;;11.60;4.65;;;15.70;99.90;;;;;;5044451;28;20046;-31
2022/06/23 03:29:28;;;;;;;6.68;3.88;;;15.80;99.90;;;;;;5043817;28;20032;-31
2022/06/23 03:32:06;;;;;;;8.40;5.10;;;15.80;99.90;;;;;;5053076;28;20039;-36
2022/06/23 03:34:37;;;;;;;7.45;5.20;;;15.80;99.90;;;;;;5033369;28;20087;-32
2022/06/23 03:37:12;;;;;;;8.30;4.35;;;15.80;99.90;;;;;;5033528;28;20478;-32
2022/06/23 03:42:53;;;;;;;7.68;4.60;;;15.90;99.90;;;;;;5034164;28;20040;-28
2022/06/23 03:45:45;;;;;;;8.07;5.20;;;15.90;99.90;;;;;;5047909;28;20028;-37
2022/06/23 03:48:33;;;;;;;6.28;4.32;;;15.90;99.90;;;;;;5047796;28;20018;-34
2022/06/23 03:51:28;;;;;;;7.07;4.70;;;15.90;99.90;;;;;;5041117;28;20078;-28
2022/06/23 03:54:10;;;;;;;7.63;5.15;;;15.90;99.90;;;;;;5052040;28;20465;-37
2022/06/23 03:56:42;;;;;;;5.95;4.60;;;15.90;99.90;;;;;;5035246;28;20033;-29
2022/06/23 03:59:16;;;;;;;8.43;4.95;;;15.90;99.90;;;;;;5038433;28;20056;-30
2022/06/23 04:01:56;;;;;;;10.77;4.93;;;15.90;99.90;;;;;;5033574;28;20022;-29
2022/06/23 04:04:44;;;;;;;17.35;5.32;;;15.90;99.90;;;;;;5032567;28;20108;-33
2022/06/23 04:07:28;;;;;;;12.30;5.35;;;15.90;99.90;;;;;;5025788;28;20489;-29
2022/06/23 04:09:58;;;;;;;13.02;5.78;;;15.90;99.90;;;;;;5032959;28;20025;-29
2022/06/23 04:12:25;;;;;;;8.18;5.00;;;15.90;99.90;;;;;;5033407;28;20037;-30
2022/06/23 04:15:09;;;;;;;10.10;5.63;;;15.90;99.90;;;;;;5038957;28;20029;-36
2022/06/23 04:18:06;;;;;;;8.45;4.95;;;16.00;99.90;;;;;;5033334;28;20025;-30
2022/06/23 04:20:38;;;;;;;;;;;16.00;99.90;;;;;;5037251;28;20526;-31
2022/06/23 04:23:08;;;;;;;10.15;5.00;;;16.10;99.90;;;;;;5032982;28;19916;-48
2022/06/23 04:25:59;;;;;;;9.93;4.75;;;16.10;99.90;;;;;;5033198;28;20025;-39
2022/06/23 04:28:40;;;;;;;11.80;4.80;;;16.10;99.90;;;;;;5038734;28;20485;-38
2022/06/23 04:31:08;;;;;;;9.85;5.03;;;16.10;99.90;;;;;;5044064;28;20072;-38
2022/06/23 04:33:39;;;;;;;8.02;4.55;;;16.20;99.90;;;;;;5048732;28;20481;-32
2022/06/23 04:36:05;;;;;;;11.23;5.03;;;16.20;99.90;;;;;;5041343;28;20028;-33
2022/06/23 04:38:41;;;;;;;6.63;4.95;;;16.20;99.90;;;;;;5042622;28;20477;-31
2022/06/23 04:41:18;;;;;;;9.00;5.93;;;16.20;99.90;;;;;;5040390;28;20072;-32
2022/06/23 04:43:58;;;;;;;9.95;5.07;;;16.30;99.90;;;;;;5034946;28;20445;-39
2022/06/23 04:46:38;;;;;;;8.30;4.63;;;16.40;99.90;;;;;;5041588;28;20040;-39
2022/06/23 04:49:15;;;;;;;6.75;4.95;;;16.40;99.90;;;;;;5046101;28;20491;-31
2022/06/23 04:52:03;;;;;;;8.48;4.75;;;16.40;99.90;;;;;;5052068;28;20029;-29
2022/06/23 04:54:36;;;;;;;8.07;4.60;;;16.50;99.90;;;;;;5042652;28;20042;-29
2022/06/23 04:57:01;;;;;;;10.52;4.75;;;16.60;99.90;;;;;;5044986;28;20052;-34
2022/06/23 04:59:38;;;;;;;8.50;5.18;;;16.70;99.90;;;;;;5033428;28;20026;-29
2022/06/23 05:02:30;;;;;;;9.77;5.70;;;16.70;99.90;;;;;;5036889;28;20385;-30
2022/06/23 05:05:01;;;;;;;8.98;5.93;;;16.80;99.90;;;;;;5050197;28;20497;-32
2022/06/23 05:07:33;;;;;;;8.55;5.35;;;16.90;99.90;;;;;;5041380;28;20088;-34
2022/06/23 05:10:06;;;;;;;13.98;5.07;;;16.90;99.90;;;;;;5047247;28;20535;-32
2022/06/23 05:12:39;;;;;;;9.18;4.55;;;17.00;99.90;;;;;;5051935;28;20040;-48
2022/06/23 05:15:25;;;;;;;9.52;4.63;;;17.00;99.90;;;;;;5044492;28;20032;-38
2022/06/23 05:18:22;;;;;;;9.38;4.80;;;17.00;99.90;;;;;;5037165;28;20029;-29
2022/06/23 05:21:13;;;;;;;8.18;4.97;;;17.10;99.90;;;;;;5041388;28;20474;-31
2022/06/23 05:24:12;;;;;;;6.03;4.85;;;17.20;99.90;;;;;;5038409;28;20026;-29
2022/06/23 05:27:04;;;;;;;19.80;5.22;;;17.30;99.90;;;;;;5034846;28;20041;-28
2022/06/23 05:30:03;;;;;;;7.50;4.20;;;17.40;99.90;;;;;;5034545;28;20383;-48
2022/06/23 05:32:37;;;;;;;6.40;4.10;;;17.50;99.90;;;;;;5036220;28;20046;-37
2022/06/23 05:35:24;;;;;;;6.57;4.00;;;17.60;99.90;;;;;;5046755;28;20377;-38
2022/06/23 05:38:02;;;;;;;5.95;4.00;;;17.60;99.90;;;;;;5039198;28;20528;-37
2022/06/23 05:40:55;;;;;;;13.35;4.72;;;17.80;99.90;;;;;;5041642;28;20020;-36
2022/06/23 05:43:21;;;;;;;8.20;4.80;;;17.90;99.90;;;;;;5053505;28;20126;-42
2022/06/23 05:45:56;;;;;;;6.63;3.85;;;18.00;99.90;;;;;;5051000;28;20541;-30
2022/06/23 05:48:35;;;;;;;7.50;4.90;;;18.10;99.90;;;;;;5038598;28;20486;-33
2022/06/23 05:51:10;;;;;;;7.60;4.50;;;18.20;99.90;;;;;;5043813;28;20489;-29
2022/06/23 05:54:03;;;;;;;6.95;4.63;;;18.30;99.90;;;;;;5044259;28;20048;-31
2022/06/23 05:56:38;;;;;;;8.80;3.70;;;18.40;99.90;;;;;;5048392;28;20502;-29
2022/06/23 05:59:15;;;;;;;7.00;4.10;;;18.50;99.90;;;;;;5036099;28;20466;-30
2022/06/23 06:02:04;;;;;;;5.78;4.38;;;18.70;99.90;;;;;;5037363;28;20083;-29
2022/06/23 06:04:42;;;;;;;6.78;3.85;;;18.80;99.90;;;;;;5040906;28;20036;-32
2022/06/23 06:07:14;;;;;;;15.77;3.92;;;18.90;99.90;;;;;;5054913;28;20033;-28
2022/06/23 06:09:40;;;;;;;12.45;4.50;;;19.00;99.90;;;;;;5051101;28;20473;-30
2022/06/23 06:12:14;;;;;;;3.90;3.47;;;19.30;99.90;;;;;;5044788;28;20489;-29
2022/06/23 06:14:54;;;;;;;5.07;3.65;;;19.90;99.90;;;;;;5046423;28;20544;-29
2022/06/23 06:17:23;;;;;;;4.55;3.80;;;20.80;99.90;;;;;;5044299;28;20456;-36
2022/06/23 06:19:51;;;;;;;6.97;4.10;;;22.10;99.90;;;;;;5036440;28;20009;-30
2022/06/23 06:22:39;;;;;;;7.82;3.65;;;23.20;99.90;;;;;;5050231;28;20067;-33
2022/06/23 06:25:14;;;;;;;5.63;3.25;;;24.60;99.90;;;;;;5035375;28;20043;-31
2022/06/23 06:27:39;;;;;;;7.65;3.55;;;26.10;99.90;;;;;;5035799;28;20482;-34
2022/06/23 06:30:08;;;;;;;5.95;3.60;;;27.50;97.90;;;;;;5043159;28;20086;-29
2022/06/23 06:32:39;;;;;;;5.93;3.65;;;28.50;96.90;;;;;;5045782;28;20041;-33
2022/06/23 06:35:28;;;;;;;7.80;3.20;;;29.00;96.20;;;;;;5044835;28;20478;-32
2022/06/23 06:38:01;;;;;;;6.35;3.50;;;29.70;95.10;;;;;;5061503;28;20025;-39
2022/06/23 06:40:28;;;;;;;8.18;3.53;;;30.00;94.50;;;;;;5047128;28;20030;-38
2022/06/23 06:43:02;;;;;;;8.02;3.67;;;30.50;93.70;;;;;;5034088;28;20033;-39
2022/06/23 06:45:35;;;;;;;5.65;2.88;;;30.60;93.30;;;;;;5034569;28;20520;-38
2022/06/23 06:48:08;;;;;;;3.10;2.70;;;30.60;93.20;;;;;;5040885;28;20056;-43
2022/06/23 06:50:39;;;;;;;5.57;3.33;;;30.50;93.20;;;;;;5035911;28;20025;-38
2022/06/23 06:53:21;;;;;;;5.15;2.90;;;29.70;93.70;;;;;;5054776;28;20025;-38
2022/06/23 06:56:16;;;;;;;10.10;3.17;;;28.30;94.60;;;;;;5051736;28;20026;-39
2022/06/23 06:58:56;;;;;;;4.85;3.10;;;26.70;95.90;;;;;;5044749;28;20033;-37
2022/06/23 07:01:24;;;;;;;3.72;3.28;;;26.10;96.20;;;;;;5051580;28;20439;-38
2022/06/23 07:03:52;;;;;;;4.72;2.72;;;25.90;96.60;;;;;;5040646;28;20447;-39
2022/06/23 07:06:40;;;;;;;3.80;2.58;;;26.00;96.30;;;;;;5042383;28;20362;-39
2022/06/23 07:09:32;;;;;;;6.50;3.33;;;25.90;96.80;;;;;;5036188;28;20033;-64
2022/06/23 07:12:08;;;;;;;5.13;3.22;;;26.00;96.90;;;;;;5041692;28;20037;-38
2022/06/23 07:14:48;;;;;;;3.78;2.67;;;26.30;96.50;;;;;;5046415;28;20071;-38
2022/06/23 07:17:32;;;;;;;5.72;2.30;;;27.40;95.70;;;;;;5053835;28;20488;-39
2022/06/23 07:20:09;;;;;;;5.93;2.55;;;28.70;95.10;;;;;;5052323;28;20013;-38
2022/06/23 07:22:50;;;;;;;4.63;2.70;;;29.80;94.20;;;;;;5052907;28;20496;-39
2022/06/23 07:25:40;;;;;;;5.10;2.78;;;30.50;93.90;;;;;;5046882;28;20477;-38
2022/06/23 07:28:36;;;;;;;3.75;3.33;;;31.10;92.90;;;;;;5034373;28;20035;-39
2022/06/23 07:31:15;;;;;;;4.63;2.58;;;31.20;92.90;;;;;;5034233;28;20033;-40
2022/06/23 07:34:11;;;;;;;6.00;2.38;;;31.30;91.80;;;;;;5038546;28;20033;-36
2022/06/23 07:36:56;;;;;;;2.77;2.57;;;31.20;92.40;;;;;;5039156;28;20029;-36
2022/06/23 07:39:29;;;;;;;6.32;3.67;;;30.70;91.70;;;;;;5038051;28;20021;-38
2022/06/23 07:42:25;;;;;;;7.82;4.05;;;29.90;92.30;;;;;;5033406;28;20045;-35
2022/06/23 07:44:59;;;;;;;5.15;2.97;;;29.20;93.00;;;;;;5033375;28;20478;-40
2022/06/23 07:47:24;;;;;;;8.07;3.60;;;28.90;93.40;;;;;;5045260;28;20095;-35
2022/06/23 07:49:50;;;;;;;11.30;2.95;;;28.60;93.60;;;;;;5043250;28;20485;-43
2022/06/23 07:52:19;;;;;;;7.32;3.72;;;28.30;94.00;;;;;;5045065;28;20482;-39
2022/06/23 07:54:48;;;;;;;3.25;2.88;;;28.00;94.00;;;;;;5033583;28;20037;-39
2022/06/23 07:57:14;;;;;;;6.55;2.85;;;27.50;94.50;;;;;;5037620;28;20500;-39
2022/06/23 07:59:58;;;;;;;5.57;2.35;;;27.20;94.70;;;;;;5040311;28;20025;-38
2022/06/23 08:02:42;;;;;;;8.65;3.20;;;27.10;95.30;;;;;;5046003;28;20017;-37
2022/06/23 08:05:23;;;;;;;2.97;2.53;;;27.30;95.00;;;;;;5038507;28;20080;-33
2022/06/23 08:07:49;;;;;;;4.80;2.15;;;27.50;95.40;;;;;;5036170;28;20067;-39
2022/06/23 08:10:22;;;;;;;3.08;2.80;;;28.00;94.90;;;;;;5040039;28;20083;-33
2022/06/23 08:13:02;;;;;;;9.57;2.90;;;28.40;94.00;;;;;;5033474;28;20528;-30
2022/06/23 08:18:30;;;;;;;3.33;2.58;;;29.00;93.40;;;;;;5045774;28;20052;-39
2022/06/23 08:21:03;;;;;;;8.02;3.17;;;29.00;93.50;;;;;;5033000;28;20505;-32
2022/06/23 08:23:38;;;;;;;6.00;2.40;;;29.10;93.50;;;;;;5033248;28;20107;-38
2022/06/23 08:26:07;;;;;;;10.98;2.63;;;29.20;93.30;;;;;;5033209;28;20040;-39
2022/06/23 08:28:33;;;;;;;4.13;3.17;;;29.50;93.10;;;;;;5051244;28;20025;-38
2022/06/23 08:30:59;;;;;;;4.33;2.63;;;29.70;92.90;;;;;;5052962;28;20532;-32
2022/06/23 08:33:26;;;;;;;4.50;3.10;;;29.90;92.40;;;;;;5037378;28;20485;-36
2022/06/23 08:35:56;;;;;;;4.05;2.90;;;30.00;92.60;;;;;;5034265;28;20038;-31
2022/06/23 08:38:35;;;;;;;12.02;3.10;;;30.30;92.30;;;;;;5051929;28;20107;-49
2022/06/23 08:41:24;;;;;;;3.30;2.50;;;30.30;92.30;;;;;;5043165;28;20036;-38
2022/06/23 08:43:53;;;;;;;6.63;2.00;;;30.60;92.40;;;;;;5039756;28;20029;-39
2022/06/23 08:46:39;;;;;;;8.13;2.67;;;30.90;92.20;;;;;;5040142;28;20024;-53
2022/06/23 08:49:10;;;;;;;5.15;2.58;;;31.20;92.00;;;;;;5045016;28;20041;-41
2022/06/23 08:51:56;;;;;;;7.03;3.83;;;31.80;91.20;;;;;;5047055;28;20032;-40
2022/06/23 08:54:39;;;;;;;4.60;3.07;;;31.80;91.20;;;;;;5049255;28;20039;-38
2022/06/23 08:57:19;;;;;;;6.10;3.40;;;31.70;91.40;;;;;;5043310;28;20052;-39
2022/06/23 09:00:00;;;;;;;6.20;2.40;;;31.70;91.10;;;;;;5060540;28;20087;-38
2022/06/23 09:02:48;;;;;;;7.78;3.88;;;31.90;91.60;;;;;;5041914;28;20509;-37
2022/06/23 09:05:44;;;;;;;6.90;4.88;;;32.20;90.80;;;;;;5043861;28;20021;-37
2022/06/23 09:08:16;;;;;;;7.80;2.58;;;32.30;90.70;;;;;;5045360;28;20473;-30
2022/06/23 09:11:04;;;;;;;6.97;3.35;;;31.80;91.40;;;;;;5048450;28;20027;-31
2022/06/23 09:13:45;;;;;;;4.50;3.05;;;31.90;91.20;;;;;;5041456;28;20543;-32
2022/06/23 09:16:14;;;;;;;10.05;4.13;;;31.90;91.40;;;;;;5038785;28;20044;-31
2022/06/23 09:19:01;;;;;;;7.45;2.60;;;32.00;91.50;;;;;;5038981;28;20033;-37
2022/06/23 09:21:30;;;;;;;14.90;4.45;;;31.90;91.90;;;;;;5038648;28;20060;-31
2022/06/23 09:23:59;;;;;;;4.38;3.17;;;32.10;91.60;;;;;;5039166;28;20030;-30
2022/06/23 09:26:40;;;;;;;5.38;3.03;;;32.00;91.90;;;;;;5041532;28;20084;-31
2022/06/23 09:29:45;;;;;;;5.85;3.22;;;31.80;92.20;;;;;;5044026;28;20492;-32
2022/06/23 09:32:21;;;;;;;10.00;5.10;;;31.70;92.50;;;;;;5042637;28;20041;-29
2022/06/23 09:35:23;;;;;;;6.80;3.60;;;31.80;92.20;;;;;;5048056;28;20047;-28
2022/06/23 09:37:55;;;;;;;5.90;3.70;;;31.50;92.50;;;;;;5047956;28;20033;-39
2022/06/23 09:40:32;;;;;;;9.18;4.70;;;31.30;93.00;;;;;;5052246;28;20029;-39
2022/06/23 09:43:19;;;;;;;5.22;4.68;;;31.10;93.00;;;;;;5042862;28;20029;-38
2022/06/23 09:46:06;;;;;;;6.88;4.57;;;31.10;93.40;;;;;;5038105;28;20025;-33
2022/06/23 09:49:02;;;;;;;8.95;3.95;;;30.80;93.90;;;;;;5054358;28;20484;-37
2022/06/23 09:51:52;;;;;;;8.00;4.47;;;30.70;93.90;;;;;;5056924;28;20028;-39
2022/06/23 09:54:39;;;;;;;8.63;4.53;;;30.70;94.20;;;;;;5046536;28;20043;-39
2022/06/23 09:57:13;;;;;;;8.73;4.80;;;30.50;94.30;;;;;;5045274;28;20051;-38
2022/06/23 10:00:09;;;;;;;13.98;6.13;;;30.60;94.30;;;;;;5035915;28;20022;-39
2022/06/23 10:03:02;;;;;;;11.10;5.20;;;30.60;94.40;;;;;;5049600;28;20061;-38
2022/06/23 10:05:52;;;;;;;12.02;5.22;;;31.00;94.00;;;;;;5035950;28;20025;-34
2022/06/23 10:08:23;;;;;;;11.38;5.07;;;31.50;93.70;;;;;;5035711;28;20060;-30
2022/06/23 10:10:51;;;;;;;10.98;4.75;;;31.90;93.60;;;;;;5035896;28;20026;-29
2022/06/23 10:13:19;;;;;;;6.10;3.75;;;32.30;93.20;;;;;;5035544;28;20542;-40
2022/06/23 10:16:00;;;;;;;7.70;4.68;;;32.50;93.20;;;;;;5043775;28;20058;-52
2022/06/23 10:18:48;;;;;;;4.63;3.58;;;32.70;93.10;;;;;;5055517;28;20087;-40
2022/06/23 10:21:20;;;;;;;11.65;5.78;;;33.20;92.40;;;;;;5053702;28;20039;-40
2022/06/23 10:23:52;;;;;;;10.65;4.57;;;33.40;92.60;;;;;;5055350;28;20029;-40
2022/06/23 10:26:29;;;;;;;8.57;3.83;;;33.50;92.30;;;;;;5054254;28;20032;-39
2022/06/23 10:29:08;;;;;;;14.15;4.05;;;33.60;92.10;;;;;;5054006;28;20032;-39
2022/06/23 10:31:40;;;;;;;12.90;3.88;;;33.60;91.70;;;;;;5040353;28;20044;-39
2022/06/23 10:34:24;;;;;;;9.60;4.30;;;33.40;91.90;;;;;;5055156;28;20033;-38
2022/06/23 10:37:11;;;;;;;7.15;4.28;;;33.20;91.80;;;;;;5054814;28;20017;-36
2022/06/23 10:40:01;;;;;;;5.60;4.63;;;33.20;92.00;;;;;;5034719;28;20482;-29
2022/06/23 10:42:33;;;;;;;7.40;4.18;;;32.90;92.20;;;;;;5035004;28;20474;-49
2022/06/23 10:45:16;;;;;;;7.20;4.70;;;32.50;92.50;;;;;;5040851;28;20029;-39
2022/06/23 10:47:50;;;;;;;8.45;4.53;;;32.40;92.50;;;;;;5038377;28;20508;-38
2022/06/23 10:50:36;;;;;;;9.25;4.68;;;32.20;92.30;;;;;;5034980;28;20533;-39
2022/06/23 10:53:26;;;;;;;6.93;4.53;;;31.90;92.90;;;;;;5035031;28;20032;-39
2022/06/23 10:56:12;;;;;;;9.10;3.97;;;31.90;92.80;;;;;;5033459;28;20131;-42
2022/06/23 10:58:56;;;;;;;10.02;4.53;;;31.90;92.80;;;;;;5040082;28;20409;-38
2022/06/23 11:01:41;;;;;;;12.52;5.13;;;31.80;93.30;;;;;;5042584;28;20035;-39
2022/06/23 11:04:54;;;;;;;7.40;4.03;;;31.70;93.20;;;;;;5045852;28;20469;-38
2022/06/23 11:07:37;;;;;;;11.57;4.40;;;31.60;93.30;;;;;;5037938;28;20033;-38
2022/06/23 11:10:13;;;;;;;11.13;4.90;;;31.60;93.40;;;;;;5052689;28;20114;-39
2022/06/23 11:12:59;;;;;;;7.22;4.95;;;31.40;93.10;;;;;;5054475;28;20017;-37
2022/06/23 11:15:49;;;;;;;15.45;4.68;;;31.30;93.10;;;;;;5054418;28;20574;-32
2022/06/23 11:18:36;;;;;;;12.27;4.82;;;31.10;93.40;;;;;;5049774;28;20041;-29
2022/06/23 11:21:32;;;;;;;8.30;4.93;;;31.10;93.40;;;;;;5033898;28;20556;-30
2022/06/23 11:24:30;;;;;;;4.68;3.80;;;31.00;93.60;;;;;;5034231;28;20036;-34
2022/06/23 11:27:20;;;;;;;8.05;4.43;;;31.00;93.90;;;;;;5012946;28;20112;-29
2022/06/23 11:29:57;;;;;;;13.82;6.45;;;31.00;94.20;;;;;;5044219;28;20140;-36
2022/06/23 11:32:57;;;;;;;9.63;5.00;;;31.10;93.70;;;;;;5033963;28;20041;-31
2022/06/23 11:35:25;;;;;;;7.80;4.32;;;31.00;94.00;;;;;;5044558;28;20045;-31
2022/06/23 11:38:10;;;;;;;10.73;5.25;;;31.10;94.60;;;;;;5047816;28;20033;-30
2022/06/23 11:40:55;;;;;;;12.40;6.15;;;31.10;93.90;;;;;;5033055;28;20108;-32
2022/06/23 11:43:29;;;;;;;11.02;4.80;;;31.30;93.80;;;;;;5033980;28;20403;-32
2022/06/23 11:46:12;;;;;;;10.30;3.95;;;31.20;93.80;;;;;;5037801;28;20025;-30
2022/06/23 11:49:08;;;;;;;6.10;3.80;;;31.10;94.40;;;;;;5043715;28;20492;-31
2022/06/23 11:51:36;;;;;;;8.38;3.67;;;31.10;94.10;;;;;;5043050;28;20489;-32
2022/06/23 11:54:21;;;;;;;5.25;3.05;;;31.30;93.70;;;;;;5038876;28;20030;-48
2022/06/23 11:57:11;;;;;;;4.60;3.45;;;31.50;93.50;;;;;;5034078;28;20428;-38
2022/06/23 11:59:55;;;;;;;8.23;4.47;;;31.60;93.30;;;;;;5039644;28;20096;-38
2022/06/23 12:02:20;;;;;;;10.02;3.33;;;31.70;93.00;;;;;;5033752;28;20029;-38
2022/06/23 12:05:31;;;;;;;10.27;3.80;;;31.80;93.00;;;;;;5033494;28;20033;-39
2022/06/23 12:08:06;;;;;;;7.95;3.10;;;31.80;93.30;;;;;;5032899;28;20095;-37
2022/06/23 12:10:34;;;;;;;11.00;3.38;;;32.00;93.40;;;;;;5033394;28;20052;-39
2022/06/23 12:13:02;;;;;;;7.10;3.33;;;32.10;93.20;;;;;;5037030;28;20481;-40
2022/06/23 12:15:32;;;;;;;3.88;2.53;;;32.10;92.40;;;;;;5051543;28;20023;-38
2022/06/23 12:18:19;;;;;;;8.48;3.65;;;32.00;92.80;;;;;;5052550;28;20103;-38
2022/06/23 12:20:56;;;;;;;5.18;3.40;;;31.80;92.70;;;;;;5053241;28;20484;-39
2022/06/23 12:23:39;;;;;;;3.20;2.40;;;31.80;93.00;;;;;;5053260;28;20036;-46
2022/06/23 12:26:21;;;;;;;11.45;4.00;;;31.90;93.30;;;;;;5047900;28;20183;-39
2022/06/23 12:28:50;;;;;;;12.30;3.88;;;32.20;92.90;;;;;;5053172;28;20115;-30
2022/06/23 12:31:35;;;;;;;4.20;3.40;;;32.40;93.00;;;;;;5052895;28;20548;-31
2022/06/23 12:34:33;;;;;;;11.57;3.42;;;32.50;92.50;;;;;;5047008;28;20061;-32
2022/06/23 12:37:25;;;;;;;5.68;2.95;;;32.50;92.70;;;;;;5033129;28;20053;-29
2022/06/23 12:40:15;;;;;;;8.45;2.85;;;32.50;92.80;;;;;;5033069;28;20056;-44
2022/06/23 12:43:11;;;;;;;7.55;2.10;;;32.50;92.70;;;;;;5032955;28;20064;-29
2022/06/23 12:45:55;;;;;;;;;;;32.60;92.80;;;;;;5033163;28;20065;-32
2022/06/23 12:48:45;;;;;;;11.88;3.30;;;32.80;92.50;;;;;;5032994;28;19912;-31
2022/06/23 12:51:29;;;;;;;7.22;3.45;;;32.70;92.60;;;;;;5033463;28;20485;-33
2022/06/23 12:54:20;;;;;;;7.40;2.50;;;32.70;92.40;;;;;;5032877;28;20029;-30
2022/06/23 12:57:07;;;;;;;12.00;4.00;;;32.70;92.40;;;;;;5033499;28;20572;-30
2022/06/23 12:59:45;;;;;;;5.07;2.53;;;32.90;92.40;;;;;;5033315;28;20096;-33
2022/06/23 13:02:40;;;;;;;7.38;2.90;;;33.10;92.30;;;;;;5033294;28;20502;-33
2022/06/23 13:05:12;;;;;;;8.23;2.30;;;33.10;92.20;;;;;;5031627;28;20037;-39
2022/06/23 13:08:03;;;;;;;7.18;2.60;;;33.00;91.90;;;;;;5032422;28;20022;-38
2022/06/23 13:10:36;;;;;;;7.72;3.30;;;33.00;92.10;;;;;;5032735;28;20093;-40
2022/06/23 13:13:20;;;;;;;9.00;3.40;;;33.00;92.00;;;;;;5032882;28;20030;-39
2022/06/23 13:15:51;;;;;;;8.30;2.90;;;33.20;91.70;;;;;;5032868;28;20037;-40
2022/06/23 13:18:31;;;;;;;5.40;2.25;;;33.10;91.80;;;;;;5032487;28;20026;-39
2022/06/23 13:21:12;;;;;;;9.23;2.55;;;33.20;92.00;;;;;;5032867;28;20029;-39
2022/06/23 13:24:01;;;;;;;6.53;3.10;;;33.40;91.60;;;;;;5032750;28;20082;-37
2022/06/23 13:26:38;;;;;;;5.43;2.03;;;33.40;91.90;;;;;;5032699;28;20029;-45
2022/06/23 13:29:22;;;;;;;10.85;2.85;;;33.50;92.00;;;;;;5044022;28;20052;-31
2022/06/23 13:32:10;;;;;;;9.02;2.88;;;33.60;92.10;;;;;;5055000;28;20040;-34
2022/06/23 13:34:44;;;;;;;9.35;2.55;;;33.70;91.60;;;;;;5051298;28;20065;-41
2022/06/23 13:37:25;;;;;;;5.68;2.50;;;33.70;91.20;;;;;;5036379;28;20033;-47
2022/06/23 13:39:59;;;;;;;7.18;3.35;;;33.70;91.40;;;;;;5035889;28;20022;-66
2022/06/23 13:42:54;;;;;;;4.03;2.22;;;33.40;91.60;;;;;;5034620;28;20543;-42
2022/06/23 13:45:38;;;;;;;4.38;2.25;;;33.50;91.50;;;;;;5036120;28;20043;-39
2022/06/23 13:48:18;;;;;;;5.05;2.70;;;33.60;91.40;;;;;;5040581;28;20099;-37
2022/06/23 13:50:56;;;;;;;16.65;3.13;;;33.30;90.50;;;;;;5036408;28;20485;-39
2022/06/23 13:53:49;;;;;;;2.72;2.28;;;32.80;91.40;;;;;;5035605;28;20486;-39
2022/06/23 13:56:26;;;;;;;4.82;3.30;;;32.80;91.70;;;;;;5036482;28;20018;-39
2022/06/23 13:59:12;;;;;;;5.80;2.42;;;33.00;92.00;;;;;;5036682;28;20489;-38